Time;durP1;ratioP1;P1;durP2;ratioP2;P2;SDS_P1;SDS_P2;PMS_P1;PMS_P2;Temp;Humidity;BMP_temperature;BMP_pressure;BME280_temperature;BME280_humidity;BME280_pressure;Samples;Min_cycle;Max_cycle;Signal;HPM_P1;HPM_P2
2022/12/21 15:39:37;;;;;;;;;;;;;;;;;;5088167;28;6671;-74
2022/12/21 15:42:31;;;;;;;;;;;;;;;;;;5072319;28;7238;-74
2022/12/21 15:45:03;;;;;;;;;;;;;;;;;;5072430;28;6932;-74
2022/12/21 15:48:00;;;;;;;;;;;;;;;;;;5071807;28;7208;-74
2022/12/21 15:50:26;;;;;;;;;;;;;;;;;;5071300;28;8137;-74
2022/12/21 15:52:56;;;;;;;;;;;;;;;;;;5071636;28;7313;-74
2022/12/21 15:55:33;;;;;;;;;;;;;;;;;;5071419;28;7126;-74
2022/12/21 15:58:01;;;;;;;;;;;;;;;;;;5071773;28;7288;-74
2022/12/21 16:03:33;;;;;;;;;;;;;;;;;;5071648;28;6929;-74
2022/12/21 16:06:17;;;;;;;;;;;;;;;;;;5071552;28;6966;-74
2022/12/21 16:08:47;;;;;;;;;;;;;;;;;;5071344;28;7435;-74
2022/12/21 16:14:43;;;;;;;;;;;;;;;;;;5058868;28;7655;-74
2022/12/21 16:17:22;;;;;;;;;;;;;;;;;;5071115;28;7113;-74
2022/12/21 16:20:01;;;;;;;;;;;;;;;;;;5051878;28;7947;-74
2022/12/21 16:25:37;;;;;;;;;;;;;;;;;;5050802;28;6946;-71
2022/12/21 16:28:02;;;;;;;;;;;;;;;;;;5051178;28;7104;-71
2022/12/21 16:33:36;;;;;;;;;;;;;;;;;;5043482;28;7048;-71
2022/12/21 16:42:26;;;;;;;;;;;;;;;;;;5070558;28;6687;-71
2022/12/21 16:44:52;;;;;;;;;;;;;;;;;;5057175;28;7349;-71
2022/12/21 16:56:28;;;;;;;;;;;;;;;;;;5095764;23;6849;-72
2022/12/21 16:58:59;;;;;;;;;;;;;;;;;;4998679;28;8908;-74
2022/12/21 17:01:27;;;;;;;;;;;;;;;;;;5004580;28;7022;-74
2022/12/21 17:10:02;;;;;;;;;;;;;;;;;;5017469;28;6958;-74
2022/12/21 17:12:41;;;;;;;;;;;;;;;;;;5017413;28;7185;-74
2022/12/21 17:15:19;;;;;;;;;;;;;;;;;;5017112;28;7502;-74
2022/12/21 17:17:45;;;;;;;;;;;;;;;;;;5017088;28;7146;-74
2022/12/21 17:20:14;;;;;;;;;;;;;;;;;;5017013;28;7356;-74
2022/12/21 17:25:55;;;;;;;;;;;;;;;;;;5017359;28;6902;-74
2022/12/21 17:28:30;;;;;;;;;;;;;;;;;;5017367;28;6937;-74
2022/12/21 17:34:02;;;;;;;;;;;;;;;;;;5016483;28;7012;-74
2022/12/21 17:39:46;;;;;;;;;;;;;;;;;;5016390;28;7147;-74
2022/12/21 17:42:12;;;;;;;;;;;;;;;;;;5016539;28;7093;-74
2022/12/21 17:44:38;;;;;;;;;;;;;;;;;;5016679;28;7206;-74
2022/12/21 17:47:11;;;;;;;;;;;;;;;;;;5016488;28;7580;-74
2022/12/21 17:49:37;;;;;;;;;;;;;;;;;;5016537;28;7170;-74
2022/12/21 17:52:09;;;;;;;;;;;;;;;;;;5016720;28;7150;-74
2022/12/21 17:54:35;;;;;;;;;;;;;;;;;;5015357;28;7187;-72
2022/12/21 17:57:00;;;;;;;;;;;;;;;;;;5015652;28;6930;-71
2022/12/21 17:59:26;;;;;;;;;;;;;;;;;;5015956;28;6973;-71
2022/12/21 18:02:02;;;;;;;;;;;;;;;;;;5016877;28;7189;-71
2022/12/21 18:04:27;;;;;;;;;;;;;;;;;;5016177;28;7145;-72
2022/12/21 18:06:53;;;;;;;;;;;;;;;;;;5016254;28;7032;-72
2022/12/21 18:09:18;;;;;;;;;;;;;;;;;;5015965;28;7075;-71
2022/12/21 18:12:01;;;;;;;;;;;;;;;;;;5016149;28;6932;-72
2022/12/21 18:14:26;;;;;;;;;;;;;;;;;;5016013;28;7136;-72
2022/12/21 18:16:59;;;;;;;;;;;;;;;;;;5015992;28;7051;-71
2022/12/21 18:19:25;;;;;;;;;;;;;;;;;;5016426;28;7184;-71
2022/12/21 18:22:00;;;;;;;;;;;;;;;;;;5015797;28;7137;-71
2022/12/21 18:24:26;;;;;;;;;;;;;;;;;;5015824;28;7068;-71
2022/12/21 18:26:52;;;;;;;;;;;;;;;;;;5015813;28;7012;-71
2022/12/21 18:29:18;;;;;;;;;;;;;;;;;;5015675;28;7220;-71
2022/12/21 18:31:46;;;;;;;;;;;;;;;;;;5015337;28;7174;-71
2022/12/21 18:34:16;;;;;;;;;;;;;;;;;;5015757;28;7416;-71
2022/12/21 18:36:42;;;;;;;;;;;;;;;;;;5015464;28;7113;-72
2022/12/21 18:39:31;;;;;;;;;;;;;;;;;;5014200;28;8796;-71
2022/12/21 18:41:56;;;;;;;;;;;;;;;;;;5015440;28;6990;-71
2022/12/21 18:44:22;;;;;;;;;;;;;;;;;;5015325;28;7027;-71
2022/12/21 18:46:50;;;;;;;;;;;;;;;;;;5015089;28;7071;-71
2022/12/21 18:49:46;;;;;;;;;;;;;;;;;;5015967;28;6935;-71
2022/12/21 18:52:25;;;;;;;;;;;;;;;;;;5015338;28;7146;-73
2022/12/21 18:54:51;;;;;;;;;;;;;;;;;;5015090;28;7142;-73
2022/12/21 18:57:18;;;;;;;;;;;;;;;;;;5012192;28;7116;-73
2022/12/21 18:59:52;;;;;;;;;;;;;;;;;;5015516;28;7211;-73
2022/12/21 19:02:23;;;;;;;;;;;;;;;;;;5014822;28;6943;-73
2022/12/21 19:04:50;;;;;;;;;;;;;;;;;;5016163;28;7292;-73
2022/12/21 19:07:15;;;;;;;;;;;;;;;;;;5014348;28;7237;-73
2022/12/21 19:09:42;;;;;;;;;;;;;;;;;;5015394;28;7172;-73
2022/12/21 19:12:16;;;;;;;;;;;;;;;;;;5014991;28;6951;-73
2022/12/21 19:14:43;;;;;;;;;;;;;;;;;;5014959;28;7592;-73
2022/12/21 19:17:20;;;;;;;;;;;;;;;;;;5014941;28;6825;-73
2022/12/21 19:19:45;;;;;;;;;;;;;;;;;;5014933;28;7080;-73
2022/12/21 19:22:23;;;;;;;;;;;;;;;;;;5014920;28;6926;-73
2022/12/21 19:25:03;;;;;;;;;;;;;;;;;;5015064;28;6911;-73
2022/12/21 19:27:29;;;;;;;;;;;;;;;;;;5014584;28;7133;-73
2022/12/21 19:29:55;;;;;;;;;;;;;;;;;;5015600;28;7009;-73
2022/12/21 19:32:20;;;;;;;;;;;;;;;;;;5015695;28;7243;-73
2022/12/21 19:34:46;;;;;;;;;;;;;;;;;;5014886;28;7092;-73
2022/12/21 19:37:21;;;;;;;;;;;;;;;;;;5014770;28;7131;-74
2022/12/21 19:40:18;;;;;;;;;;;;;;;;;;5015013;28;7473;-74
2022/12/21 19:42:45;;;;;;;;;;;;;;;;;;5014629;28;7178;-74
2022/12/21 19:45:16;;;;;;;;;;;;;;;;;;5015299;28;6985;-74
2022/12/21 19:47:42;;;;;;;;;;;;;;;;;;5014758;28;7398;-74
2022/12/21 19:50:12;;;;;;;;;;;;;;;;;;5015319;28;7124;-74
2022/12/21 19:52:38;;;;;;;;;;;;;;;;;;4997916;28;7161;-74
2022/12/21 20:04:18;;;;;;;;;;;;;;;;;;5014118;28;6964;-74
2022/12/21 20:06:43;;;;;;;;;;;;;;;;;;5004360;28;7149;-74
2022/12/21 20:09:15;;;;;;;;;;;;;;;;;;5014066;28;8221;-74
2022/12/21 20:11:41;;;;;;;;;;;;;;;;;;5014344;28;7140;-74
2022/12/21 20:14:21;;;;;;;;;;;;;;;;;;5014436;28;7182;-74
2022/12/21 20:16:47;;;;;;;;;;;;;;;;;;5014278;28;7037;-74
2022/12/21 20:19:14;;;;;;;;;;;;;;;;;;5016809;28;7449;-74
2022/12/21 20:24:50;;;;;;;;;;;;;;;;;;5018050;28;6687;-74
2022/12/21 20:27:16;;;;;;;;;;;;;;;;;;5001352;28;7146;-74
2022/12/21 20:30:00;;;;;;;;;;;;;;;;;;5003005;28;7044;-74
2022/12/21 20:32:26;;;;;;;;;;;;;;;;;;5010526;28;7409;-74
2022/12/21 20:35:18;;;;;;;;;;;;;;;;;;5017950;28;7214;-74
2022/12/21 20:37:44;;;;;;;;;;;;;;;;;;4998221;28;7217;-74
2022/12/21 20:46:00;;;;;;;;;;;;;;;;;;4998440;28;6907;-74
2022/12/21 20:48:26;;;;;;;;;;;;;;;;;;4998388;28;7234;-74
2022/12/21 20:50:52;;;;;;;;;;;;;;;;;;5046548;23;7226;-73
2022/12/21 20:53:49;;;;;;;;;;;;;;;;;;5017383;28;7204;-74
2022/12/21 20:58:55;;;;;;;;;;;;;;;;;;5017453;28;6940;-74
2022/12/21 21:01:21;;;;;;;;;;;;;;;;;;5016903;28;7065;-74
2022/12/21 21:04:07;;;;;;;;;;;;;;;;;;5017330;28;7179;-74
2022/12/21 21:06:32;;;;;;;;;;;;;;;;;;5016949;28;7084;-74
2022/12/21 21:11:59;;;;;;;;;;;;;;;;;;5017638;28;6977;-74
2022/12/21 21:14:26;;;;;;;;;;;;;;;;;;5016912;28;7139;-74
2022/12/21 21:16:52;;;;;;;;;;;;;;;;;;5017253;28;7086;-74
2022/12/21 21:19:43;;;;;;;;;;;;;;;;;;5017691;28;7264;-74
2022/12/21 21:25:17;;;;;;;;;;;;;;;;;;5013748;28;7081;-74
2022/12/21 21:27:43;;;;;;;;;;;;;;;;;;4980992;28;8627;-74
2022/12/21 21:30:15;;;;;;;;;;;;;;;;;;5006231;28;7169;-74
2022/12/21 21:32:56;;;;;;;;;;;;;;;;;;5007673;28;7335;-74
2022/12/21 21:35:24;;;;;;;;;;;;;;;;;;5016717;28;7292;-74
2022/12/21 21:43:55;;;;;;;;;;;;;;;;;;5003399;28;6921;-74
2022/12/21 21:46:21;;;;;;;;;;;;;;;;;;4997043;28;7057;-74
2022/12/21 21:48:46;;;;;;;;;;;;;;;;;;5008766;28;6920;-74
2022/12/21 21:51:12;;;;;;;;;;;;;;;;;;5011732;28;6831;-74
2022/12/21 21:56:43;;;;;;;;;;;;;;;;;;4996579;28;6910;-74
2022/12/21 21:59:18;;;;;;;;;;;;;;;;;;4996375;28;6969;-74
2022/12/21 22:02:08;;;;;;;;;;;;;;;;;;4979001;28;7398;-74
2022/12/21 22:04:34;;;;;;;;;;;;;;;;;;4997387;28;7847;-74
2022/12/21 22:07:23;;;;;;;;;;;;;;;;;;4996343;28;6903;-74
2022/12/21 22:10:27;;;;;;;;;;;;;;;;;;4996467;28;7327;-74
2022/12/21 22:33:01;;;;;;;;;;;;;;;;;;4996605;28;6912;-75
2022/12/21 22:44:00;;;;;;;;;;;;;;;;;;5015767;28;6912;-76
2022/12/21 22:49:44;;;;;;;;;;;;;;;;;;5015165;28;6909;-76
2022/12/21 22:52:11;;;;;;;;;;;;;;;;;;4976113;28;7174;-76
2022/12/21 22:54:36;;;;;;;;;;;;;;;;;;4976354;28;7044;-76
2022/12/21 23:00:06;;;;;;;;;;;;;;;;;;4968127;28;7034;-76
2022/12/21 23:03:00;;;;;;;;;;;;;;;;;;4976569;28;7268;-76
2022/12/21 23:05:26;;;;;;;;;;;;;;;;;;4977384;28;7188;-76
2022/12/21 23:07:51;;;;;;;;;;;;;;;;;;4976265;28;7149;-76
2022/12/21 23:10:19;;;;;;;;;;;;;;;;;;5048357;23;7459;-76
2022/12/21 23:15:48;;;;;;;;;;;;;;;;;;5015076;28;6690;-76
